Time;durP1;ratioP1;P1;durP2;ratioP2;P2;SDS_P1;SDS_P2;PMS_P1;PMS_P2;Temp;Humidity;BMP_temperature;BMP_pressure;BME280_temperature;BME280_humidity;BME280_pressure;Samples;Min_cycle;Max_cycle;Signal;HPM_P1;HPM_P2
2022/10/27 00:01:37;;;;;;;3.00;1.40;;;18.60;99.90;;;;;;5053438;28;20032;-71
2022/10/27 00:04:03;;;;;;;5.80;1.48;;;18.50;99.90;;;;;;5053149;28;20025;-71
2022/10/27 00:06:29;;;;;;;6.03;1.65;;;18.60;99.90;;;;;;5053129;28;20437;-71
2022/10/27 00:08:54;;;;;;;5.40;1.48;;;18.60;99.90;;;;;;5051743;28;20117;-71
2022/10/27 00:11:20;;;;;;;10.63;2.45;;;18.50;99.90;;;;;;5052583;28;20021;-71
2022/10/27 00:13:45;;;;;;;6.80;1.73;;;18.50;99.90;;;;;;5052966;28;20025;-71
2022/10/27 00:16:14;;;;;;;5.15;1.33;;;18.50;99.90;;;;;;5052864;28;20044;-72
2022/10/27 00:18:41;;;;;;;7.47;1.80;;;18.50;99.90;;;;;;5052882;28;20067;-71
2022/10/27 00:21:09;;;;;;;5.18;1.70;;;18.50;99.90;;;;;;5053092;28;20029;-71
2022/10/27 00:23:36;;;;;;;4.45;1.40;;;18.50;99.90;;;;;;5052906;28;20044;-71
2022/10/27 00:26:03;;;;;;;3.80;1.60;;;18.40;99.90;;;;;;5052203;28;20049;-71
2022/10/27 00:28:29;;;;;;;5.32;1.63;;;18.40;99.90;;;;;;5052742;28;20071;-71
2022/10/27 00:31:19;;;;;;;7.65;1.80;;;18.40;99.90;;;;;;5051461;28;20032;-71
2022/10/27 00:33:46;;;;;;;7.05;1.95;;;18.40;99.90;;;;;;5052517;28;20055;-71
2022/10/27 00:36:14;;;;;;;3.60;1.40;;;18.30;99.90;;;;;;5052794;28;20060;-71
2022/10/27 00:38:41;;;;;;;5.60;1.80;;;18.40;99.90;;;;;;5052651;28;20036;-71
2022/10/27 00:41:21;;;;;;;6.05;1.80;;;18.30;99.90;;;;;;5052276;28;20044;-71
2022/10/27 00:43:46;;;;;;;5.97;1.75;;;18.30;99.90;;;;;;5045864;28;20478;-72
2022/10/27 00:46:33;;;;;;;9.55;1.65;;;18.30;99.90;;;;;;5034853;28;20044;-71
2022/10/27 00:49:03;;;;;;;6.32;1.58;;;18.30;99.90;;;;;;5035468;28;20029;-72
2022/10/27 00:51:29;;;;;;;6.22;1.88;;;18.30;99.90;;;;;;5036217;28;20018;-70
2022/10/27 00:53:55;;;;;;;8.82;1.45;;;18.30;99.90;;;;;;5036298;28;20080;-71
2022/10/27 00:56:21;;;;;;;6.03;1.63;;;18.30;99.90;;;;;;5036509;28;20061;-71
2022/10/27 00:58:48;;;;;;;5.95;1.40;;;18.30;99.90;;;;;;5036578;28;20078;-71
2022/10/27 01:01:14;;;;;;;7.13;1.70;;;18.30;99.90;;;;;;5035693;28;20466;-71
2022/10/27 01:03:39;;;;;;;3.75;1.45;;;18.20;99.90;;;;;;5035459;28;20025;-71
2022/10/27 01:06:05;;;;;;;7.40;1.50;;;18.30;99.90;;;;;;5036394;28;20037;-70
2022/10/27 01:08:31;;;;;;;6.43;1.45;;;18.20;99.90;;;;;;5036090;28;20466;-71
2022/10/27 01:10:56;;;;;;;5.45;2.00;;;18.20;99.90;;;;;;5036393;28;20417;-71
2022/10/27 01:13:23;;;;;;;4.05;1.50;;;18.20;99.90;;;;;;5036270;28;20026;-71
2022/10/27 01:16:25;;;;;;;3.53;1.40;;;18.20;99.90;;;;;;5036282;28;20033;-71
2022/10/27 01:18:50;;;;;;;5.22;1.58;;;18.20;99.90;;;;;;5036072;28;20036;-71
2022/10/27 01:21:26;;;;;;;6.50;1.52;;;18.20;99.90;;;;;;5035257;28;20037;-71
2022/10/27 01:24:29;;;;;;;5.22;1.20;;;18.20;99.90;;;;;;5035371;28;20044;-71
2022/10/27 01:27:06;;;;;;;6.70;1.35;;;18.10;99.90;;;;;;5035996;28;20044;-71
2022/10/27 01:30:06;;;;;;;8.52;1.60;;;18.10;99.90;;;;;;5035851;28;20021;-71
2022/10/27 01:32:50;;;;;;;6.43;2.15;;;18.10;99.90;;;;;;5035731;28;20029;-71
2022/10/27 01:35:37;;;;;;;4.00;1.48;;;18.10;99.90;;;;;;5035805;28;20437;-71
2022/10/27 01:38:14;;;;;;;6.95;1.92;;;18.10;99.90;;;;;;5035717;28;20025;-71
2022/10/27 01:40:48;;;;;;;5.25;1.63;;;18.10;99.90;;;;;;5035910;28;20037;-71
2022/10/27 01:43:21;;;;;;;6.18;1.90;;;18.10;99.90;;;;;;5035635;28;20100;-71
2022/10/27 01:45:47;;;;;;;4.97;1.40;;;18.00;99.90;;;;;;5036024;28;20038;-71
2022/10/27 01:48:14;;;;;;;6.68;1.95;;;18.00;99.90;;;;;;5035578;28;20497;-71
2022/10/27 01:50:41;;;;;;;5.35;1.88;;;18.00;99.90;;;;;;5035714;28;20112;-71
2022/10/27 01:53:09;;;;;;;5.43;1.52;;;17.90;99.90;;;;;;5035339;28;20029;-72
2022/10/27 01:56:08;;;;;;;6.65;1.75;;;18.00;99.90;;;;;;5035380;28;20026;-72
2022/10/27 01:59:03;;;;;;;5.10;1.83;;;17.90;99.90;;;;;;5033709;28;20120;-71
2022/10/27 02:01:28;;;;;;;6.90;1.98;;;17.90;99.90;;;;;;5035360;28;20551;-71
2022/10/27 02:04:17;;;;;;;6.90;2.05;;;17.90;99.90;;;;;;5035246;28;20152;-71
2022/10/27 02:07:03;;;;;;;7.97;2.90;;;17.90;99.90;;;;;;5034930;28;20120;-71
2022/10/27 02:09:51;;;;;;;5.82;2.10;;;17.90;99.90;;;;;;5033956;28;20105;-70
2022/10/27 02:12:37;;;;;;;9.07;2.55;;;17.90;99.90;;;;;;5035229;28;20036;-71
2022/10/27 02:15:13;;;;;;;8.07;2.17;;;17.90;99.90;;;;;;5035072;28;20021;-71
2022/10/27 02:17:42;;;;;;;6.70;2.47;;;17.90;99.90;;;;;;5034932;28;20025;-71
2022/10/27 02:20:14;;;;;;;4.55;2.05;;;17.80;99.90;;;;;;5035015;28;20025;-72
2022/10/27 02:22:42;;;;;;;6.82;2.88;;;17.90;99.90;;;;;;5034816;28;20430;-71
2022/10/27 02:25:08;;;;;;;7.43;2.60;;;17.80;99.90;;;;;;5034524;28;20067;-71
2022/10/27 02:27:42;;;;;;;7.68;2.22;;;17.90;99.90;;;;;;5034756;28;20030;-71
2022/10/27 02:30:09;;;;;;;9.70;2.58;;;17.90;99.90;;;;;;5034792;28;20025;-72
2022/10/27 02:32:35;;;;;;;8.57;2.47;;;17.90;99.90;;;;;;5034782;28;20029;-71
2022/10/27 02:35:01;;;;;;;5.55;2.17;;;17.80;99.90;;;;;;5034587;28;20411;-71
2022/10/27 02:37:39;;;;;;;5.18;2.50;;;17.90;99.90;;;;;;5034599;28;20542;-71
2022/10/27 02:40:06;;;;;;;7.47;2.47;;;17.80;99.90;;;;;;5034512;28;20032;-71
2022/10/27 02:42:31;;;;;;;5.53;2.35;;;17.80;99.90;;;;;;5034755;28;20025;-71
2022/10/27 02:44:57;;;;;;;8.10;2.47;;;17.80;99.90;;;;;;5034410;28;20440;-71
2022/10/27 02:47:23;;;;;;;9.60;2.38;;;17.80;99.90;;;;;;5034481;28;20067;-71
2022/10/27 02:49:49;;;;;;;6.78;2.58;;;17.80;99.90;;;;;;5034304;28;20022;-72
2022/10/27 02:52:15;;;;;;;8.40;3.03;;;17.80;99.90;;;;;;5034370;28;20018;-71
2022/10/27 02:54:41;;;;;;;8.75;3.25;;;17.80;99.90;;;;;;5034272;28;20474;-70
2022/10/27 02:57:07;;;;;;;11.05;3.15;;;17.80;99.90;;;;;;5033286;28;20029;-71
2022/10/27 02:59:34;;;;;;;8.95;3.13;;;17.80;99.90;;;;;;5034553;28;20036;-71
2022/10/27 03:01:59;;;;;;;11.30;2.90;;;17.70;99.90;;;;;;5034102;28;20393;-71
2022/10/27 03:04:25;;;;;;;7.70;3.08;;;17.70;99.90;;;;;;5034067;28;20018;-71
2022/10/27 03:06:50;;;;;;;12.43;2.72;;;17.70;99.90;;;;;;5033997;28;20486;-71
2022/10/27 03:09:16;;;;;;;6.05;3.00;;;17.80;99.90;;;;;;5033420;28;20451;-71
2022/10/27 03:11:41;;;;;;;6.65;2.50;;;17.80;99.90;;;;;;5034128;28;20037;-71
2022/10/27 03:14:07;;;;;;;8.85;2.50;;;17.70;99.90;;;;;;5034430;28;20026;-71
2022/10/27 03:16:32;;;;;;;5.00;1.92;;;17.70;99.90;;;;;;5034006;28;20108;-70
2022/10/27 03:18:58;;;;;;;4.40;2.08;;;17.60;99.90;;;;;;5033496;28;20048;-71
2022/10/27 03:21:24;;;;;;;7.00;2.28;;;17.60;99.90;;;;;;5033836;28;20033;-71
2022/10/27 03:23:50;;;;;;;5.35;2.38;;;17.60;99.90;;;;;;5033818;28;20026;-71
2022/10/27 03:26:15;;;;;;;7.18;2.80;;;17.60;99.90;;;;;;5033688;28;20040;-71
2022/10/27 03:28:41;;;;;;;7.97;3.00;;;17.60;99.90;;;;;;5034043;28;20022;-70
2022/10/27 03:31:07;;;;;;;5.55;2.13;;;17.60;99.90;;;;;;5033432;28;20466;-71
2022/10/27 03:33:32;;;;;;;5.63;2.28;;;17.60;99.90;;;;;;5033526;28;20428;-70
2022/10/27 03:36:00;;;;;;;6.22;2.35;;;17.60;99.90;;;;;;5033497;28;20045;-70
2022/10/27 03:38:25;;;;;;;5.63;1.90;;;17.50;99.90;;;;;;5034015;28;20355;-71
2022/10/27 03:40:51;;;;;;;5.20;1.55;;;17.50;99.90;;;;;;5033365;28;20029;-71
2022/10/27 03:43:17;;;;;;;6.35;1.90;;;17.50;99.90;;;;;;5033666;28;20033;-71
2022/10/27 03:45:48;;;;;;;6.35;2.00;;;17.50;99.90;;;;;;5033345;28;20049;-71
2022/10/27 03:48:14;;;;;;;7.50;2.25;;;17.40;99.90;;;;;;5033244;28;20025;-70
2022/10/27 03:50:43;;;;;;;7.20;2.28;;;17.50;99.90;;;;;;5033328;28;20101;-71
2022/10/27 03:53:09;;;;;;;8.30;2.17;;;17.40;99.90;;;;;;5033537;28;20033;-71
2022/10/27 03:55:34;;;;;;;8.70;2.40;;;17.40;99.90;;;;;;5032940;28;20037;-71
2022/10/27 03:58:00;;;;;;;5.38;1.70;;;17.40;99.90;;;;;;5033373;28;20021;-71
2022/10/27 04:00:27;;;;;;;6.78;2.25;;;17.40;99.90;;;;;;5033512;28;20097;-71
2022/10/27 04:02:53;;;;;;;4.97;2.22;;;17.40;99.90;;;;;;5032986;28;20026;-71
2022/10/27 04:05:19;;;;;;;8.07;2.00;;;17.40;99.90;;;;;;5033232;28;20030;-72
2022/10/27 04:07:45;;;;;;;7.10;2.53;;;17.30;99.90;;;;;;5033149;28;20064;-71
2022/10/27 04:10:11;;;;;;;5.90;2.05;;;17.30;99.90;;;;;;5033439;28;20034;-71
2022/10/27 04:12:37;;;;;;;6.28;2.22;;;17.30;99.90;;;;;;5033140;28;20021;-71
2022/10/27 04:15:04;;;;;;;5.15;1.80;;;17.30;99.90;;;;;;5033049;28;20071;-71
2022/10/27 04:17:29;;;;;;;5.60;1.85;;;17.30;99.90;;;;;;5032614;28;20029;-72
2022/10/27 04:19:55;;;;;;;5.75;2.22;;;17.20;99.90;;;;;;5032726;28;20051;-71
2022/10/27 04:22:20;;;;;;;5.85;2.20;;;17.30;99.90;;;;;;5031542;28;20106;-72
2022/10/27 04:24:46;;;;;;;7.18;2.00;;;17.30;99.90;;;;;;5032760;28;20041;-71
2022/10/27 04:27:11;;;;;;;4.88;2.10;;;17.30;99.90;;;;;;5031551;28;20017;-71
2022/10/27 04:29:37;;;;;;;7.38;2.20;;;17.30;99.90;;;;;;5032855;28;20033;-71
2022/10/27 04:32:02;;;;;;;3.22;1.85;;;17.30;99.90;;;;;;5032492;28;20032;-71
2022/10/27 04:34:28;;;;;;;5.70;1.67;;;17.30;99.90;;;;;;5032711;28;20018;-71
2022/10/27 04:36:54;;;;;;;7.47;2.20;;;17.30;99.90;;;;;;5032811;28;20520;-71
2022/10/27 04:39:20;;;;;;;5.63;2.00;;;17.30;99.90;;;;;;5033062;28;20029;-70
2022/10/27 04:41:46;;;;;;;6.93;1.80;;;17.30;99.90;;;;;;5032778;28;20030;-71
2022/10/27 04:44:12;;;;;;;6.07;1.80;;;17.30;99.90;;;;;;5032548;28;20076;-71
2022/10/27 04:46:38;;;;;;;7.70;2.35;;;17.30;99.90;;;;;;5032843;28;20021;-72
2022/10/27 04:49:03;;;;;;;4.95;1.65;;;17.30;99.90;;;;;;5032621;28;20552;-71
2022/10/27 04:51:29;;;;;;;6.57;1.95;;;17.30;99.90;;;;;;5032832;28;20029;-71
2022/10/27 04:53:54;;;;;;;6.60;1.80;;;17.20;99.90;;;;;;5032655;28;20080;-70
2022/10/27 04:56:20;;;;;;;6.22;1.92;;;17.20;99.90;;;;;;5032419;28;20029;-71
2022/10/27 04:58:46;;;;;;;6.53;1.88;;;17.30;99.90;;;;;;5032620;28;20049;-71
2022/10/27 05:01:13;;;;;;;7.60;2.08;;;17.20;99.90;;;;;;5034364;28;20033;-74
2022/10/27 05:03:39;;;;;;;7.93;1.83;;;17.30;99.90;;;;;;5043544;28;20463;-73
2022/10/27 05:06:05;;;;;;;7.18;2.08;;;17.40;99.90;;;;;;5051391;28;20083;-72
2022/10/27 05:08:32;;;;;;;6.40;1.98;;;17.50;99.90;;;;;;5050585;28;20470;-70
2022/10/27 05:10:57;;;;;;;4.75;1.92;;;17.60;99.90;;;;;;5052434;28;20030;-70
2022/10/27 05:13:23;;;;;;;10.27;1.80;;;17.50;99.90;;;;;;5052148;28;20036;-73
2022/10/27 05:15:49;;;;;;;5.78;2.00;;;17.60;99.90;;;;;;5051944;28;20025;-73
2022/10/27 05:18:14;;;;;;;4.88;2.08;;;17.60;99.90;;;;;;5052187;28;20401;-71
2022/10/27 05:20:40;;;;;;;5.68;2.22;;;17.60;99.90;;;;;;5050169;28;20072;-68
2022/10/27 05:23:06;;;;;;;4.43;1.92;;;17.60;99.90;;;;;;5038094;28;20061;-72
2022/10/27 05:25:31;;;;;;;6.00;2.25;;;17.60;99.90;;;;;;5047297;28;20045;-72
2022/10/27 05:28:08;;;;;;;7.90;2.40;;;17.50;99.90;;;;;;5052998;28;20060;-73
2022/10/27 05:30:34;;;;;;;6.70;1.92;;;17.60;99.90;;;;;;5038984;28;20474;-72
2022/10/27 05:33:00;;;;;;;2.78;1.67;;;17.60;99.90;;;;;;5057463;28;20493;-73
2022/10/27 05:35:26;;;;;;;6.47;1.90;;;17.60;99.90;;;;;;5054238;28;20029;-72
2022/10/27 05:37:52;;;;;;;4.55;1.67;;;17.50;99.90;;;;;;5055379;28;20432;-74
2022/10/27 05:40:17;;;;;;;5.40;1.70;;;17.50;99.90;;;;;;5054199;28;20039;-72
2022/10/27 05:42:51;;;;;;;4.47;1.90;;;17.50;99.90;;;;;;5052570;28;20025;-72
2022/10/27 05:45:18;;;;;;;5.88;2.20;;;17.50;99.90;;;;;;5050684;28;20025;-72
2022/10/27 05:47:44;;;;;;;6.22;2.00;;;17.60;99.90;;;;;;5048738;28;20083;-72
2022/10/27 05:50:09;;;;;;;4.10;1.83;;;17.70;99.90;;;;;;5052833;28;20021;-71
2022/10/27 05:52:35;;;;;;;6.00;1.85;;;17.60;99.90;;;;;;5053612;28;20454;-72
2022/10/27 05:55:01;;;;;;;6.60;2.35;;;17.70;99.90;;;;;;5054334;28;20033;-71
2022/10/27 05:57:26;;;;;;;4.32;1.58;;;17.80;99.90;;;;;;5057236;28;20029;-72
2022/10/27 05:59:52;;;;;;;6.15;2.08;;;17.90;99.90;;;;;;5051238;28;20025;-71
2022/10/27 06:02:17;;;;;;;3.92;1.63;;;17.90;99.90;;;;;;5051778;28;20085;-71
2022/10/27 06:04:43;;;;;;;2.95;1.60;;;18.00;99.90;;;;;;5051996;28;20037;-71
2022/10/27 06:07:09;;;;;;;3.50;1.50;;;18.00;99.90;;;;;;5051647;28;20390;-71
2022/10/27 06:09:34;;;;;;;5.82;1.92;;;18.00;99.90;;;;;;5052067;28;20163;-70
2022/10/27 06:12:00;;;;;;;5.00;1.60;;;17.90;99.50;;;;;;5050230;28;20025;-72
2022/10/27 06:14:25;;;;;;;7.43;1.52;;;17.80;99.50;;;;;;5049265;28;20111;-72
2022/10/27 06:16:51;;;;;;;6.07;1.50;;;17.80;99.40;;;;;;5054347;28;20075;-72
2022/10/27 06:19:16;;;;;;;6.75;2.03;;;17.70;99.30;;;;;;5054612;28;20036;-71
2022/10/27 06:21:42;;;;;;;5.65;1.42;;;17.60;99.30;;;;;;5053237;28;20020;-72
2022/10/27 06:24:07;;;;;;;7.30;1.67;;;17.60;99.30;;;;;;5053330;28;20056;-70
2022/10/27 06:26:33;;;;;;;7.25;1.80;;;17.70;99.40;;;;;;5052731;28;20444;-71
2022/10/27 06:28:58;;;;;;;3.78;1.60;;;17.70;99.20;;;;;;5051532;28;20024;-71
2022/10/27 06:31:24;;;;;;;6.00;1.73;;;17.80;99.20;;;;;;5054294;28;20470;-71
2022/10/27 06:33:50;;;;;;;5.95;1.80;;;17.80;99.20;;;;;;5051381;28;20029;-71
2022/10/27 06:36:15;;;;;;;4.93;1.67;;;17.80;99.20;;;;;;5052068;28;20033;-72
2022/10/27 06:38:41;;;;;;;5.57;1.38;;;17.80;99.30;;;;;;5051795;28;20031;-71
2022/10/27 06:41:07;;;;;;;8.93;1.60;;;17.80;99.40;;;;;;5053942;28;20029;-71
2022/10/27 06:43:32;;;;;;;4.35;1.77;;;17.80;99.20;;;;;;5054055;28;20044;-71
2022/10/27 06:45:58;;;;;;;5.40;1.90;;;17.80;99.40;;;;;;5054726;28;20033;-71
2022/10/27 06:48:23;;;;;;;7.90;1.90;;;17.80;99.60;;;;;;5073027;28;20103;-71
2022/10/27 06:50:49;;;;;;;18.35;2.75;;;17.80;99.40;;;;;;5050431;28;20017;-72
2022/10/27 06:53:15;;;;;;;7.35;1.83;;;17.90;99.40;;;;;;5052096;28;20414;-71
2022/10/27 06:55:40;;;;;;;5.47;1.70;;;17.90;99.20;;;;;;5062468;28;20036;-72
2022/10/27 06:58:06;;;;;;;6.30;1.67;;;18.00;99.10;;;;;;5073939;28;20069;-72
2022/10/27 07:00:32;;;;;;;7.90;2.00;;;18.00;98.90;;;;;;5059087;28;20063;-71
2022/10/27 07:02:58;;;;;;;4.88;1.45;;;18.00;98.80;;;;;;5049592;28;20017;-71
2022/10/27 07:05:24;;;;;;;6.03;1.77;;;18.00;98.70;;;;;;5041700;28;20451;-71
2022/10/27 07:07:51;;;;;;;4.57;1.73;;;18.00;98.70;;;;;;5042053;28;20025;-72
2022/10/27 07:10:18;;;;;;;5.53;2.08;;;18.00;98.80;;;;;;5046232;28;20104;-71
2022/10/27 07:12:55;;;;;;;4.93;1.60;;;18.10;98.70;;;;;;5038056;28;20039;-71
2022/10/27 07:15:21;;;;;;;6.47;1.58;;;18.10;98.90;;;;;;5051574;28;20052;-71
2022/10/27 07:17:47;;;;;;;5.90;1.88;;;18.10;98.40;;;;;;5035681;28;20429;-71
2022/10/27 07:20:12;;;;;;;10.18;1.45;;;18.10;98.50;;;;;;5047104;28;20375;-72
2022/10/27 07:22:41;;;;;;;14.65;1.83;;;18.10;98.60;;;;;;5048737;28;20150;-71
2022/10/27 07:25:07;;;;;;;13.40;2.70;;;18.10;98.70;;;;;;5032997;28;20034;-70
2022/10/27 07:27:33;;;;;;;10.57;2.40;;;18.00;98.50;;;;;;5033301;28;20087;-72
2022/10/27 07:29:58;;;;;;;11.77;2.40;;;18.00;98.70;;;;;;5033187;28;20045;-71
2022/10/27 07:32:24;;;;;;;10.15;1.65;;;18.00;98.60;;;;;;5036350;28;20052;-72
2022/10/27 07:34:49;;;;;;;15.05;1.70;;;18.00;98.60;;;;;;5049603;28;20371;-72
2022/10/27 07:37:15;;;;;;;11.60;2.15;;;18.00;98.70;;;;;;5034689;28;20029;-72
2022/10/27 07:39:40;;;;;;;6.85;1.60;;;18.10;98.90;;;;;;5045488;28;20029;-70
2022/10/27 07:42:06;;;;;;;10.52;1.80;;;18.10;99.10;;;;;;5033194;28;20039;-72
2022/10/27 07:44:31;;;;;;;7.10;2.35;;;18.10;99.10;;;;;;5035020;28;20039;-70
2022/10/27 07:46:57;;;;;;;10.75;1.80;;;18.10;99.20;;;;;;5038248;28;20033;-71
2022/10/27 07:49:22;;;;;;;8.75;1.92;;;18.10;99.10;;;;;;5034291;28;20055;-72
2022/10/27 07:51:48;;;;;;;9.80;1.50;;;18.10;99.00;;;;;;5036138;28;20542;-71
2022/10/27 07:54:13;;;;;;;4.25;1.40;;;18.10;99.30;;;;;;5033054;28;20037;-71
2022/10/27 07:56:39;;;;;;;4.72;1.65;;;18.10;99.20;;;;;;5049193;28;20036;-72
2022/10/27 07:59:04;;;;;;;11.73;2.05;;;18.20;99.30;;;;;;5037987;28;20501;-71
2022/10/27 08:01:30;;;;;;;6.90;1.58;;;18.20;99.30;;;;;;5058497;28;20059;-70
2022/10/27 08:03:56;;;;;;;7.85;1.52;;;18.20;99.20;;;;;;5043838;28;20033;-71
2022/10/27 08:06:22;;;;;;;10.43;1.40;;;18.20;99.20;;;;;;5047473;28;20040;-70
2022/10/27 08:08:48;;;;;;;6.28;1.95;;;18.20;99.30;;;;;;5045931;28;20466;-70
2022/10/27 08:11:13;;;;;;;9.68;2.03;;;18.20;99.30;;;;;;5052244;28;20033;-69
2022/10/27 08:13:39;;;;;;;13.73;1.63;;;18.20;99.20;;;;;;5052723;28;20025;-71
2022/10/27 08:16:04;;;;;;;10.75;1.67;;;18.20;99.20;;;;;;5052632;28;20021;-71
2022/10/27 08:18:30;;;;;;;8.95;1.85;;;18.20;99.10;;;;;;5052731;28;20056;-72
2022/10/27 08:20:55;;;;;;;3.70;1.30;;;18.20;99.10;;;;;;5052755;28;20371;-71
2022/10/27 08:23:23;;;;;;;9.48;1.63;;;18.20;99.20;;;;;;5052328;28;20029;-71
2022/10/27 08:25:48;;;;;;;6.13;1.48;;;18.30;99.20;;;;;;5052301;28;20507;-69
2022/10/27 08:28:14;;;;;;;6.80;1.20;;;18.30;99.20;;;;;;5052784;28;20021;-71
2022/10/27 08:30:40;;;;;;;6.35;1.38;;;18.20;99.10;;;;;;5052388;28;20079;-72
2022/10/27 08:33:07;;;;;;;9.93;2.13;;;18.30;99.20;;;;;;5052750;28;20024;-71
2022/10/27 08:35:33;;;;;;;4.47;1.35;;;18.30;99.20;;;;;;5052673;28;20035;-71
2022/10/27 08:38:00;;;;;;;5.75;1.52;;;18.30;99.10;;;;;;5052558;28;20112;-72
2022/10/27 08:40:43;;;;;;;7.10;2.08;;;18.30;99.20;;;;;;5052577;28;20494;-72
2022/10/27 08:43:30;;;;;;;4.35;1.35;;;18.30;99.20;;;;;;5052547;28;20100;-72
2022/10/27 08:46:05;;;;;;;6.40;1.25;;;18.30;99.20;;;;;;5052575;28;20115;-70
2022/10/27 08:48:34;;;;;;;3.92;1.27;;;18.30;99.20;;;;;;5052569;28;20032;-70
2022/10/27 08:51:00;;;;;;;4.95;1.38;;;18.30;99.20;;;;;;5052576;28;20105;-70
2022/10/27 08:53:30;;;;;;;3.83;1.52;;;18.40;99.30;;;;;;5053751;28;20524;-70
2022/10/27 08:56:05;;;;;;;6.45;1.30;;;18.30;99.50;;;;;;5042161;28;20037;-70
2022/10/27 08:58:40;;;;;;;3.33;1.23;;;18.40;99.20;;;;;;5049114;28;20025;-72
2022/10/27 09:01:19;;;;;;;2.78;0.95;;;18.40;99.00;;;;;;5050376;28;20500;-71
2022/10/27 09:04:09;;;;;;;5.50;1.42;;;18.40;99.10;;;;;;5045426;28;20017;-72
2022/10/27 09:06:47;;;;;;;4.53;1.50;;;18.40;99.10;;;;;;5051986;28;20041;-72
2022/10/27 09:09:32;;;;;;;7.57;1.90;;;18.40;99.20;;;;;;5044232;28;20053;-72
2022/10/27 09:12:09;;;;;;;8.05;1.88;;;18.40;99.40;;;;;;5046593;28;20052;-72
2022/10/27 09:14:58;;;;;;;6.07;1.92;;;18.40;99.40;;;;;;5040811;28;20021;-72
2022/10/27 09:17:29;;;;;;;4.93;1.30;;;18.40;99.50;;;;;;5053379;28;20044;-71
2022/10/27 09:20:02;;;;;;;9.95;1.85;;;18.40;99.40;;;;;;5040573;28;20044;-72
2022/10/27 09:22:31;;;;;;;10.10;1.42;;;18.50;99.40;;;;;;5046201;28;20025;-70
2022/10/27 09:25:04;;;;;;;4.80;1.77;;;18.50;99.40;;;;;;5035215;28;20045;-71
2022/10/27 09:27:30;;;;;;;4.38;1.33;;;18.50;99.40;;;;;;5047140;28;20040;-70
2022/10/27 09:30:00;;;;;;;7.35;1.33;;;18.50;99.30;;;;;;5035583;28;20021;-71
2022/10/27 09:32:26;;;;;;;4.97;1.40;;;18.50;99.40;;;;;;5035602;28;20060;-71
2022/10/27 09:35:24;;;;;;;5.25;0.98;;;18.50;99.40;;;;;;5038595;28;20049;-71
2022/10/27 09:37:55;;;;;;;6.53;1.20;;;18.50;99.40;;;;;;5049167;28;20048;-71
2022/10/27 09:40:22;;;;;;;7.68;1.55;;;18.60;99.40;;;;;;5053105;28;20017;-70
2022/10/27 09:42:52;;;;;;;7.15;1.70;;;18.60;99.60;;;;;;5053871;28;20032;-70
2022/10/27 09:45:20;;;;;;;9.80;2.00;;;18.60;99.70;;;;;;5049107;28;20087;-70
2022/10/27 09:47:55;;;;;;;8.88;1.75;;;18.60;99.60;;;;;;5054715;28;20024;-71
2022/10/27 09:50:23;;;;;;;7.53;1.40;;;18.60;99.50;;;;;;5053825;28;20033;-71
2022/10/27 09:52:50;;;;;;;14.25;2.08;;;18.60;99.50;;;;;;5052834;28;20025;-71
2022/10/27 09:55:17;;;;;;;11.98;1.60;;;18.60;99.50;;;;;;5052361;28;20358;-69
2022/10/27 09:57:45;;;;;;;9.52;1.63;;;18.60;99.70;;;;;;5054310;28;20031;-69
2022/10/27 10:00:20;;;;;;;7.85;1.70;;;18.60;99.60;;;;;;5054331;28;20025;-70
2022/10/27 10:03:16;;;;;;;9.18;1.95;;;18.70;99.60;;;;;;5053909;28;20029;-70
2022/10/27 10:05:43;;;;;;;5.70;1.55;;;18.70;99.60;;;;;;5053740;28;20029;-70
2022/10/27 10:08:23;;;;;;;7.18;2.00;;;18.70;99.60;;;;;;5054960;28;20536;-71
2022/10/27 10:10:56;;;;;;;5.50;1.75;;;18.80;99.60;;;;;;5053874;28;20025;-70
2022/10/27 10:13:22;;;;;;;11.15;2.45;;;18.70;99.50;;;;;;5054378;28;20041;-70
2022/10/27 10:16:10;;;;;;;12.38;1.75;;;18.70;99.50;;;;;;5053648;28;20025;-70
2022/10/27 10:18:39;;;;;;;4.32;1.55;;;18.80;99.50;;;;;;5054219;28;20021;-72
2022/10/27 10:21:07;;;;;;;7.57;1.73;;;18.80;99.50;;;;;;5053358;28;20478;-72
2022/10/27 10:23:47;;;;;;;8.23;2.35;;;18.80;99.40;;;;;;5054281;28;20123;-70
2022/10/27 10:26:25;;;;;;;5.05;1.55;;;18.80;99.40;;;;;;5052358;28;20045;-69
2022/10/27 10:28:54;;;;;;;5.38;1.45;;;18.80;99.40;;;;;;5053684;28;20045;-70
2022/10/27 10:31:25;;;;;;;6.72;1.88;;;18.80;99.40;;;;;;5052675;28;20021;-69
2022/10/27 10:33:53;;;;;;;4.40;1.80;;;18.80;99.40;;;;;;5052665;28;20021;-69
2022/10/27 10:36:49;;;;;;;6.97;1.65;;;18.80;99.50;;;;;;5054500;28;20021;-70
2022/10/27 10:39:30;;;;;;;10.35;2.00;;;18.80;99.40;;;;;;5053713;28;20037;-72
2022/10/27 10:42:13;;;;;;;5.22;1.70;;;18.80;99.40;;;;;;5053578;28;20016;-72
2022/10/27 10:44:39;;;;;;;9.02;2.13;;;18.90;99.40;;;;;;5053600;28;20107;-71
2022/10/27 10:47:19;;;;;;;5.38;1.90;;;18.90;99.30;;;;;;5053900;28;20107;-73
2022/10/27 10:49:50;;;;;;;4.47;1.73;;;18.90;99.30;;;;;;5053413;28;20017;-71
2022/10/27 10:52:22;;;;;;;7.13;2.03;;;18.90;99.30;;;;;;5053637;28;20025;-72
2022/10/27 10:54:47;;;;;;;8.82;2.03;;;18.90;99.30;;;;;;5037204;28;20025;-73
2022/10/27 10:57:34;;;;;;;7.75;1.95;;;19.00;99.30;;;;;;5051053;28;20037;-72
2022/10/27 11:00:02;;;;;;;9.82;2.25;;;19.00;99.30;;;;;;5053729;28;20079;-73
2022/10/27 11:02:29;;;;;;;6.93;2.10;;;19.00;99.20;;;;;;5053616;28;20025;-70
2022/10/27 11:05:18;;;;;;;4.80;1.95;;;19.00;99.30;;;;;;5053302;28;20040;-71
2022/10/27 11:07:46;;;;;;;6.45;1.75;;;19.00;99.30;;;;;;5052910;28;20040;-69
2022/10/27 11:10:21;;;;;;;7.60;2.03;;;19.00;99.20;;;;;;5053429;28;20025;-70
2022/10/27 11:12:59;;;;;;;7.78;2.00;;;19.00;99.30;;;;;;5053114;28;20118;-68
2022/10/27 11:15:38;;;;;;;7.00;2.08;;;19.00;99.20;;;;;;5053393;28;20385;-68
2022/10/27 11:18:22;;;;;;;7.50;1.73;;;19.10;99.20;;;;;;5052923;28;20315;-69
2022/10/27 11:20:56;;;;;;;6.30;1.98;;;19.10;99.20;;;;;;5053194;28;20017;-69
2022/10/27 11:23:25;;;;;;;5.10;2.20;;;19.10;99.30;;;;;;5053223;28;21523;-69
2022/10/27 11:25:52;;;;;;;6.57;2.05;;;19.10;99.50;;;;;;5052415;28;20163;-70
2022/10/27 11:28:47;;;;;;;6.65;2.03;;;19.10;99.60;;;;;;5049197;28;20047;-63
2022/10/27 11:31:18;;;;;;;6.40;2.17;;;19.10;99.40;;;;;;5048248;28;20105;-71
2022/10/27 11:34:17;;;;;;;8.73;2.50;;;19.20;99.70;;;;;;5051728;28;20054;-71
2022/10/27 11:37:00;;;;;;;7.35;2.50;;;19.20;99.80;;;;;;5050031;28;20100;-68
2022/10/27 11:39:31;;;;;;;9.93;2.38;;;19.20;99.80;;;;;;5049721;28;20024;-72
2022/10/27 11:42:24;;;;;;;5.35;2.22;;;19.30;99.90;;;;;;5052581;28;20029;-71
2022/10/27 11:45:03;;;;;;;7.90;2.65;;;19.20;99.80;;;;;;5052239;28;20051;-71
2022/10/27 11:47:41;;;;;;;6.10;2.05;;;19.30;99.80;;;;;;5049634;28;20056;-71
2022/10/27 11:50:23;;;;;;;10.65;3.00;;;19.30;99.80;;;;;;5050353;28;20035;-71
2022/10/27 11:52:51;;;;;;;8.90;2.55;;;19.30;99.70;;;;;;5052467;28;20032;-71
2022/10/27 11:55:21;;;;;;;8.30;2.67;;;19.30;99.80;;;;;;5051828;28;20049;-71
2022/10/27 11:58:11;;;;;;;6.78;2.55;;;19.30;99.90;;;;;;5049578;28;20504;-71
2022/10/27 12:01:08;;;;;;;13.35;3.05;;;19.30;99.90;;;;;;5051026;28;20112;-71
2022/10/27 12:03:40;;;;;;;7.95;2.25;;;19.40;99.90;;;;;;5051967;28;20049;-70
2022/10/27 12:06:26;;;;;;;7.30;2.45;;;19.30;99.90;;;;;;5052813;28;20508;-70
2022/10/27 12:09:04;;;;;;;7.40;2.50;;;19.30;99.90;;;;;;5051174;28;20027;-70
2022/10/27 12:12:05;;;;;;;9.73;2.80;;;19.30;99.90;;;;;;5052090;28;20092;-69
2022/10/27 12:14:58;;;;;;;9.68;2.80;;;19.30;99.90;;;;;;5049747;28;20025;-70
2022/10/27 12:17:26;;;;;;;9.43;2.88;;;19.30;99.90;;;;;;5052246;28;20055;-69
2022/10/27 12:19:55;;;;;;;10.38;3.20;;;19.40;99.90;;;;;;5045196;28;20032;-69
2022/10/27 12:22:27;;;;;;;10.48;2.75;;;19.40;99.90;;;;;;5052535;28;20522;-69
2022/10/27 12:25:08;;;;;;;8.05;2.67;;;19.40;99.90;;;;;;5052020;28;20033;-68
2022/10/27 12:27:37;;;;;;;11.23;2.55;;;19.40;99.90;;;;;;5051325;28;20033;-69
2022/10/27 12:30:09;;;;;;;11.10;2.63;;;19.40;99.90;;;;;;5052188;28;20479;-72
2022/10/27 12:32:43;;;;;;;11.18;2.22;;;19.40;99.90;;;;;;5052448;28;20032;-72
2022/10/27 12:35:21;;;;;;;9.85;2.65;;;19.40;99.90;;;;;;5052649;28;20032;-72
2022/10/27 12:38:27;;;;;;;9.52;2.85;;;19.50;99.90;;;;;;5051045;28;20106;-71
2022/10/27 12:41:07;;;;;;;9.90;2.55;;;19.50;99.90;;;;;;5031736;28;20045;-72
2022/10/27 12:43:44;;;;;;;8.55;2.42;;;19.50;99.90;;;;;;5036594;28;20382;-71
2022/10/27 12:46:16;;;;;;;8.20;3.13;;;19.50;99.90;;;;;;5046963;28;20457;-72
2022/10/27 12:48:54;;;;;;;6.78;2.65;;;19.50;99.90;;;;;;5055389;28;20088;-72
2022/10/27 12:51:47;;;;;;;9.98;2.72;;;19.50;99.90;;;;;;5055709;28;20029;-71
2022/10/27 12:54:31;;;;;;;6.85;2.83;;;19.60;99.90;;;;;;5056442;28;20051;-72
2022/10/27 12:57:16;;;;;;;11.77;2.80;;;19.60;99.90;;;;;;5056553;28;20418;-71
2022/10/27 13:00:09;;;;;;;9.30;2.92;;;19.60;99.90;;;;;;5052726;28;20461;-72
2022/10/27 13:03:00;;;;;;;8.30;2.78;;;19.70;99.90;;;;;;5043164;28;20025;-71
2022/10/27 13:05:52;;;;;;;7.43;2.53;;;19.70;99.90;;;;;;5056466;28;20393;-72